createdAt,value
2023-02-11T00:02:35.298Z,21.37
2023-02-11T00:05:37.998Z,19.90
2023-02-11T00:08:40.372Z,19.92
2023-02-11T00:11:42.925Z,20.53
2023-02-11T00:14:45.180Z,21.08
2023-02-11T00:17:47.747Z,21.90
2023-02-11T00:20:49.987Z,21.75
2023-02-11T00:23:52.984Z,20.87
2023-02-11T00:26:55.159Z,21.10
2023-02-11T00:30:00.500Z,20.20
2023-02-11T00:33:05.873Z,21.37
2023-02-11T00:36:13.330Z,20.80
2023-02-11T00:39:15.833Z,23.27
2023-02-11T00:42:18.470Z,21.47
2023-02-11T00:45:21.403Z,22.00
2023-02-11T00:48:24.013Z,20.05
2023-02-11T00:51:28.186Z,22.42
2023-02-11T00:54:31.625Z,19.85
2023-02-11T00:57:33.869Z,21.25
2023-02-11T01:00:36.650Z,21.05
2023-02-11T01:03:39.671Z,23.92
2023-02-11T01:06:42.486Z,22.23
2023-02-11T01:09:44.791Z,20.60
2023-02-11T01:12:47.387Z,21.87
2023-02-11T01:15:50.426Z,24.35
2023-02-11T01:18:53.217Z,20.65
2023-02-11T01:21:55.471Z,21.12
2023-02-11T01:24:57.967Z,21.17
2023-02-11T01:28:00.202Z,20.02
2023-02-11T01:31:04.853Z,22.45
2023-02-11T01:34:07.773Z,22.17
2023-02-11T01:37:12.368Z,22.83
2023-02-11T01:40:17.422Z,21.27
2023-02-11T01:43:20.480Z,22.10
2023-02-11T01:46:33.371Z,21.52
2023-02-11T01:49:42.313Z,22.10
2023-02-11T01:52:47.175Z,20.83
2023-02-11T01:56:11.705Z,21.48
2023-02-11T01:59:20.431Z,20.75
2023-02-11T02:02:39.696Z,21.10
2023-02-11T02:05:58.195Z,20.80
2023-02-11T02:09:05.509Z,22.55
2023-02-11T02:12:08.605Z,21.58
2023-02-11T02:15:36.337Z,22.08
2023-02-11T02:19:16.666Z,20.12
2023-02-11T02:22:33.709Z,19.37
2023-02-11T02:25:51.408Z,21.92
2023-02-11T02:29:24.745Z,19.12
2023-02-11T02:32:40.462Z,22.00
2023-02-11T02:35:52.403Z,21.23
2023-02-11T02:39:01.552Z,21.20
2023-02-11T02:42:05.605Z,21.15
2023-02-11T02:45:11.013Z,22.40
2023-02-11T02:48:28.837Z,20.55
2023-02-11T02:51:55.693Z,21.75
2023-02-11T02:55:28.553Z,21.73
2023-02-11T02:59:04.498Z,20.60
2023-02-11T03:02:29.057Z,18.50
2023-02-11T03:05:52.315Z,17.75
2023-02-11T03:09:00.133Z,21.02
2023-02-11T03:12:04.697Z,19.30
2023-02-11T03:15:08.289Z,20.88
2023-02-11T03:18:15.634Z,20.80
2023-02-11T03:21:20.125Z,21.70
2023-02-11T03:24:33.099Z,20.48
2023-02-11T03:27:46.736Z,20.55
2023-02-11T03:30:55.973Z,20.25
2023-02-11T03:34:08.719Z,19.17
2023-02-11T03:37:19.967Z,21.02
2023-02-11T03:40:25.819Z,21.00
2023-02-11T03:43:34.558Z,18.42
2023-02-11T03:46:40.178Z,20.98
2023-02-11T03:49:47.087Z,20.58
2023-02-11T03:52:50.162Z,19.75
2023-02-11T03:55:55.115Z,22.45
2023-02-11T03:58:57.741Z,18.27
2023-02-11T04:02:00.308Z,20.30
2023-02-11T04:05:06.787Z,21.00
2023-02-11T04:08:09.460Z,20.73
2023-02-11T04:11:12.012Z,20.35
2023-02-11T04:14:14.342Z,20.42
2023-02-11T04:17:17.038Z,21.17
2023-02-11T04:20:19.466Z,18.75
2023-02-11T04:23:21.952Z,19.52
2023-02-11T04:26:24.519Z,20.77
2023-02-11T04:29:28.178Z,22.73
2023-02-11T04:32:30.354Z,18.42
2023-02-11T04:35:33.261Z,21.80
2023-02-11T04:38:35.507Z,20.13
2023-02-11T04:41:38.042Z,19.67
2023-02-11T04:44:40.260Z,18.83
2023-02-11T04:47:42.777Z,23.83
2023-02-11T04:50:45.058Z,21.70
2023-02-11T04:53:47.550Z,23.03
2023-02-11T04:56:51.066Z,26.40
2023-02-11T04:59:53.623Z,24.48
2023-02-11T05:02:55.956Z,26.55
2023-02-11T05:05:58.585Z,27.23
2023-02-11T05:09:00.789Z,25.00
2023-02-11T05:12:03.435Z,24.13
2023-02-11T05:15:06.095Z,28.52
2023-02-11T05:18:08.730Z,28.77
2023-02-11T05:21:14.113Z,27.65
2023-02-11T05:24:16.720Z,27.15
2023-02-11T05:27:18.886Z,30.42
2023-02-11T05:30:21.593Z,26.02
2023-02-11T05:33:24.235Z,29.00
2023-02-11T05:36:26.955Z,29.58
2023-02-11T05:39:29.213Z,29.55
2023-02-11T05:42:31.731Z,28.43
2023-02-11T05:45:34.425Z,29.20
2023-02-11T05:48:36.978Z,30.35
2023-02-11T05:51:39.145Z,30.10
2023-02-11T05:54:41.670Z,30.03
2023-02-11T05:57:43.915Z,29.52
2023-02-11T06:00:46.560Z,28.90
2023-02-11T06:03:50.122Z,27.80
2023-02-11T06:06:52.398Z,27.50
2023-02-11T06:09:54.940Z,29.47
2023-02-11T06:12:57.193Z,27.67
2023-02-11T06:16:01.325Z,28.80
2023-02-11T06:19:03.728Z,29.33
2023-02-11T06:22:06.548Z,29.37
2023-02-11T06:25:08.788Z,31.63
2023-02-11T06:28:11.425Z,31.40
2023-02-11T06:31:14.712Z,32.88
2023-02-11T06:34:17.387Z,34.63
2023-02-11T06:37:19.688Z,30.02
2023-02-11T06:40:22.312Z,34.10
2023-02-11T06:43:24.535Z,30.50
2023-02-11T06:46:27.064Z,28.97
2023-02-11T06:49:29.513Z,34.92
2023-02-11T06:52:32.981Z,30.53
2023-02-11T06:55:35.482Z,30.10
2023-02-11T06:58:38.332Z,31.00
2023-02-11T07:01:40.538Z,29.20
2023-02-11T07:04:43.286Z,31.23
2023-02-11T07:07:45.509Z,29.95
2023-02-11T07:10:48.020Z,30.07
2023-02-11T07:13:51.604Z,27.20
2023-02-11T07:16:54.471Z,31.98
2023-02-11T07:19:56.794Z,30.50
2023-02-11T07:23:00.165Z,34.50
2023-02-11T07:26:07.848Z,30.90
2023-02-11T07:29:10.375Z,29.55
2023-02-11T07:32:13.800Z,30.90
2023-02-11T07:35:16.563Z,29.70
2023-02-11T07:38:18.900Z,27.62
2023-02-11T07:41:23.372Z,28.57
2023-02-11T07:44:25.713Z,27.45
2023-02-11T07:47:28.260Z,24.92
2023-02-11T07:50:30.512Z,26.70
2023-02-11T07:53:33.183Z,21.50
2023-02-11T07:56:35.364Z,22.45
2023-02-11T07:59:38.066Z,23.85
2023-02-11T08:02:40.340Z,23.10
2023-02-11T08:05:43.820Z,21.37
2023-02-11T08:08:46.964Z,20.83
2023-02-11T08:11:49.435Z,19.58
2023-02-11T08:14:51.656Z,19.05
2023-02-11T08:17:54.126Z,22.05
2023-02-11T08:20:56.350Z,19.15
2023-02-11T08:23:59.104Z,19.52
2023-02-11T08:27:01.423Z,18.50
2023-02-11T08:30:04.473Z,17.37
2023-02-11T08:33:06.774Z,19.42
2023-02-11T08:36:17.422Z,17.50
2023-02-11T08:39:22.763Z,18.30
2023-02-11T08:42:25.425Z,21.95
2023-02-11T08:45:27.788Z,16.73
2023-02-11T08:48:30.331Z,16.87
2023-02-11T08:51:33.198Z,17.90
2023-02-11T08:54:37.116Z,19.73
2023-02-11T09:00:43.990Z,17.87
2023-02-11T09:03:46.438Z,20.70
2023-02-11T09:06:49.122Z,19.53
2023-02-11T09:09:51.462Z,18.92
2023-02-11T09:12:54.010Z,20.92
2023-02-11T09:15:56.727Z,22.02
2023-02-11T09:19:01.754Z,19.30
2023-02-11T09:22:04.145Z,21.15
2023-02-11T09:25:06.797Z,22.45
2023-02-11T09:28:09.890Z,21.25
2023-02-11T09:31:15.603Z,22.27
2023-02-11T09:34:17.987Z,23.73
2023-02-11T09:37:20.457Z,21.95
2023-02-11T09:40:23.106Z,22.80
2023-02-11T09:43:46.697Z,23.35
2023-02-11T09:46:59.801Z,22.17
2023-02-11T09:50:12.234Z,22.52
2023-02-11T09:53:24.773Z,24.42
2023-02-11T09:56:28.210Z,24.48
2023-02-11T09:59:30.460Z,22.55
2023-02-11T10:02:54.532Z,18.52
2023-02-11T10:06:08.812Z,18.33
2023-02-11T10:09:20.085Z,18.25
2023-02-11T10:12:46.749Z,20.60
2023-02-11T10:15:55.237Z,20.00
2023-02-11T10:19:11.227Z,20.55
2023-02-11T10:22:31.034Z,18.45
2023-02-11T10:25:39.545Z,19.98
2023-02-11T10:28:46.201Z,18.62
2023-02-11T10:31:50.720Z,17.83
2023-02-11T10:34:58.757Z,19.25
2023-02-11T10:38:01.333Z,20.12
2023-02-11T10:41:03.995Z,19.15
2023-02-11T10:44:07.693Z,19.90
2023-02-11T10:47:22.052Z,18.27
2023-02-11T10:50:30.640Z,19.90
2023-02-11T10:53:34.802Z,19.50
2023-02-11T10:56:42.020Z,20.65
2023-02-11T10:59:44.669Z,19.15
2023-02-11T11:02:54.927Z,18.83
2023-02-11T11:06:06.715Z,20.37
2023-02-11T11:09:28.686Z,18.00
2023-02-11T11:12:32.845Z,16.48
2023-02-11T11:15:35.349Z,18.87
2023-02-11T11:18:38.084Z,19.30
2023-02-11T11:21:41.666Z,16.67
2023-02-11T11:24:54.047Z,16.45
2023-02-11T11:28:00.492Z,15.95
2023-02-11T11:31:03.164Z,20.00
2023-02-11T11:34:27.012Z,18.37
2023-02-11T11:37:32.065Z,18.77
2023-02-11T11:40:35.654Z,17.25
2023-02-11T11:43:37.998Z,17.73
2023-02-11T11:46:44.117Z,19.33
2023-02-11T11:49:49.615Z,14.63
2023-02-11T11:53:05.016Z,15.50
2023-02-11T11:56:14.137Z,15.77
2023-02-11T11:59:17.265Z,15.25
2023-02-11T12:02:41.182Z,13.53
2023-02-11T12:05:49.873Z,13.98
2023-02-11T12:09:00.085Z,15.27
2023-02-11T12:12:21.498Z,12.60
2023-02-11T12:15:26.660Z,14.43
2023-02-11T12:18:38.701Z,15.10
2023-02-11T12:21:52.110Z,16.05
2023-02-11T12:25:08.597Z,14.18
2023-02-11T12:28:27.913Z,13.75
2023-02-11T12:31:56.008Z,16.23
2023-02-11T12:35:16.650Z,14.87
2023-02-11T12:38:31.481Z,13.93
2023-02-11T12:42:04.523Z,14.45
2023-02-11T12:45:13.913Z,13.40
2023-02-11T12:48:38.257Z,15.60
2023-02-11T12:52:10.108Z,14.95
2023-02-11T12:55:28.068Z,12.82
2023-02-11T12:58:44.530Z,13.18
2023-02-11T13:01:49.672Z,13.20
2023-02-11T13:05:00.101Z,13.73
2023-02-11T13:08:17.822Z,13.73
2023-02-11T13:11:27.980Z,12.35
2023-02-11T13:14:36.640Z,11.98
2023-02-11T13:18:01.655Z,12.20
2023-02-11T13:21:15.871Z,11.63
2023-02-11T13:24:39.668Z,10.63
2023-02-11T13:28:01.466Z,11.07
2023-02-11T13:31:07.284Z,9.73
2023-02-11T13:34:49.426Z,11.18
2023-02-11T13:37:51.989Z,9.63
2023-02-11T13:41:21.060Z,9.63
2023-02-11T13:44:26.609Z,9.20
2023-02-11T13:47:34.909Z,9.57
2023-02-11T13:50:46.657Z,10.63
2023-02-11T13:53:56.065Z,10.38
2023-02-11T13:57:20.669Z,11.18
2023-02-11T14:03:57.835Z,10.15
2023-02-11T14:07:48.518Z,10.55
2023-02-11T14:10:54.404Z,10.40
2023-02-11T14:14:14.251Z,10.27
2023-02-11T14:17:19.046Z,9.93
2023-02-11T14:20:37.863Z,10.40
2023-02-11T14:23:41.304Z,10.23
2023-02-11T14:26:59.247Z,10.93
2023-02-11T14:30:18.765Z,10.10
2023-02-11T14:33:46.781Z,10.82
2023-02-11T14:37:03.580Z,8.93
2023-02-11T14:40:39.946Z,10.85
2023-02-11T14:43:47.973Z,9.35
2023-02-11T14:46:55.380Z,11.50
2023-02-11T14:49:58.109Z,11.55
2023-02-11T14:53:02.488Z,11.25
2023-02-11T14:56:18.482Z,9.88
2023-02-11T14:59:23.144Z,10.73
2023-02-11T15:02:32.940Z,9.05
2023-02-11T15:05:35.640Z,10.52
2023-02-11T15:08:42.564Z,13.07
2023-02-11T15:11:49.549Z,10.65
2023-02-11T15:14:59.168Z,10.25
2023-02-11T15:18:04.180Z,13.30
2023-02-11T15:21:09.820Z,10.48
2023-02-11T15:24:31.014Z,11.65
2023-02-11T15:27:43.358Z,9.13
2023-02-11T15:30:45.666Z,12.05
2023-02-11T15:33:48.318Z,10.63
2023-02-11T15:36:50.598Z,10.60
2023-02-11T15:39:54.194Z,11.30
2023-02-11T15:43:05.956Z,11.93
2023-02-11T15:46:11.675Z,10.20
2023-02-11T15:49:19.228Z,13.10
2023-02-11T15:52:25.181Z,11.50
2023-02-11T15:55:29.331Z,12.45
2023-02-11T15:58:36.795Z,11.63
2023-02-11T16:01:40.048Z,10.50
2023-02-11T16:07:51.893Z,10.02
2023-02-11T16:10:59.084Z,12.23
2023-02-11T16:14:04.100Z,12.63
2023-02-11T16:17:27.756Z,11.12
2023-02-11T16:20:30.663Z,10.65
2023-02-11T16:23:42.040Z,12.07
2023-02-11T16:26:48.911Z,10.77
2023-02-11T16:29:51.983Z,13.65
2023-02-11T16:32:54.485Z,11.90
2023-02-11T16:35:57.762Z,12.57
2023-02-11T16:39:00.037Z,10.95
2023-02-11T16:42:05.187Z,12.80
2023-02-11T16:45:09.633Z,10.77
2023-02-11T16:51:17.386Z,11.12
2023-02-11T16:54:20.495Z,14.90
2023-02-11T16:57:25.728Z,12.00
2023-02-11T17:00:30.047Z,13.20
2023-02-11T17:03:37.491Z,10.70
2023-02-11T17:06:40.045Z,10.93
2023-02-11T17:09:42.255Z,13.50
2023-02-11T17:12:45.180Z,11.55
2023-02-11T17:15:47.428Z,12.52
2023-02-11T17:18:49.949Z,13.00
2023-02-11T17:21:53.122Z,11.80
2023-02-11T17:24:57.095Z,13.90
2023-02-11T17:27:59.369Z,14.07
2023-02-11T17:31:10.435Z,12.32
2023-02-11T17:34:14.179Z,13.73
2023-02-11T17:37:17.089Z,12.40
2023-02-11T17:40:19.842Z,11.82
2023-02-11T17:43:23.119Z,13.05
2023-02-11T17:46:25.585Z,11.77
2023-02-11T17:49:28.206Z,13.68
2023-02-11T17:52:30.587Z,13.00
2023-02-11T17:55:34.179Z,12.70
2023-02-11T17:58:36.558Z,13.15
2023-02-11T18:01:41.076Z,15.07
2023-02-11T18:04:43.654Z,12.90
2023-02-11T18:07:46.240Z,13.40
2023-02-11T18:10:48.827Z,13.17
2023-02-11T18:13:54.435Z,14.43
2023-02-11T18:16:57.595Z,14.32
2023-02-11T18:19:59.896Z,13.15
2023-02-11T18:23:02.727Z,14.20
2023-02-11T18:26:08.047Z,15.77
2023-02-11T18:29:10.551Z,16.25
2023-02-11T18:32:14.180Z,15.27
2023-02-11T18:35:17.049Z,16.73
2023-02-11T18:38:19.340Z,14.68
2023-02-11T18:41:21.872Z,14.73
2023-02-11T18:44:24.708Z,13.20
2023-02-11T18:47:27.301Z,16.37
2023-02-11T18:50:29.592Z,13.65
2023-02-11T18:53:32.094Z,14.02
2023-02-11T18:56:34.451Z,14.65
2023-02-11T18:59:36.960Z,14.63
2023-02-11T19:02:39.273Z,14.30
2023-02-11T19:05:42.531Z,13.80
2023-02-11T19:08:44.736Z,14.15
2023-02-11T19:11:53.851Z,14.20
2023-02-11T19:14:57.975Z,15.82
2023-02-11T19:18:00.443Z,14.02
2023-02-11T19:21:10.610Z,14.68
2023-02-11T19:24:16.133Z,16.30
2023-02-11T19:27:18.413Z,14.07
2023-02-11T19:30:20.993Z,13.30
2023-02-11T19:33:23.376Z,14.43
2023-02-11T19:36:25.923Z,14.07
2023-02-11T19:39:28.164Z,13.77
2023-02-11T19:42:30.623Z,14.25
2023-02-11T19:45:32.878Z,14.38
2023-02-11T19:48:35.400Z,14.13
2023-02-11T19:51:39.223Z,14.93
2023-02-11T19:54:41.698Z,13.70
2023-02-11T19:57:44.011Z,13.00
2023-02-11T20:00:46.487Z,13.48
2023-02-11T20:03:51.465Z,13.25
2023-02-11T20:06:53.687Z,14.57
2023-02-11T20:09:56.384Z,14.60
2023-02-11T20:12:58.565Z,12.88
2023-02-11T20:16:06.898Z,13.38
2023-02-11T20:19:09.238Z,14.00
2023-02-11T20:22:11.741Z,13.48
2023-02-11T20:25:13.964Z,14.87
2023-02-11T20:28:16.844Z,14.40
2023-02-11T20:31:20.265Z,13.90
2023-02-11T20:34:23.009Z,13.88
2023-02-11T20:37:25.426Z,13.75
2023-02-11T20:40:27.941Z,14.20
2023-02-11T20:43:31.010Z,14.27
2023-02-11T20:46:34.979Z,14.20
2023-02-11T20:52:40.125Z,12.85
2023-02-11T20:55:42.361Z,14.80
2023-02-11T20:58:45.095Z,13.55
2023-02-11T21:01:49.711Z,11.93
2023-02-11T21:04:52.325Z,11.85
2023-02-11T21:07:54.696Z,11.30
2023-02-11T21:10:57.477Z,10.70
2023-02-11T21:14:00.653Z,11.30
2023-02-11T21:17:03.178Z,12.20
2023-02-11T21:20:06.166Z,10.48
2023-02-11T21:23:08.702Z,11.90
2023-02-11T21:26:11.328Z,10.75
2023-02-11T21:29:13.977Z,11.12
2023-02-11T21:32:17.668Z,12.05
2023-02-11T21:35:20.264Z,10.93
2023-02-11T21:38:23.071Z,11.23
2023-02-11T21:41:27.369Z,11.02
2023-02-11T21:44:31.983Z,11.15
2023-02-11T21:47:34.518Z,11.02
2023-02-11T21:50:44.175Z,10.00
2023-02-11T21:53:47.386Z,10.45
2023-02-11T21:56:50.650Z,12.23
2023-02-11T21:59:53.486Z,11.38
2023-02-11T22:02:55.721Z,12.73
2023-02-11T22:05:58.228Z,10.57
2023-02-11T22:09:08.079Z,12.63
2023-02-11T22:12:10.681Z,10.48
2023-02-11T22:15:13.439Z,11.43
2023-02-11T22:18:15.988Z,11.30
2023-02-11T22:21:22.143Z,11.80
2023-02-11T22:24:24.961Z,11.23
2023-02-11T22:27:27.180Z,9.88
2023-02-11T22:30:29.643Z,10.95
2023-02-11T22:33:31.800Z,12.25
2023-02-11T22:36:40.901Z,11.50
2023-02-11T22:39:43.093Z,11.95
2023-02-11T22:42:45.544Z,12.13
2023-02-11T22:45:48.144Z,12.23
2023-02-11T22:48:51.032Z,12.15
2023-02-11T22:51:53.194Z,12.32
2023-02-11T22:54:55.717Z,10.45
2023-02-11T22:57:58.080Z,12.55
2023-02-11T23:01:00.771Z,11.20
2023-02-11T23:04:04.910Z,11.48
2023-02-11T23:07:07.403Z,10.15
2023-02-11T23:10:10.720Z,11.45
2023-02-11T23:13:13.246Z,12.52
2023-02-11T23:16:19.558Z,11.55
2023-02-11T23:19:22.135Z,10.98
2023-02-11T23:22:24.476Z,11.27
2023-02-11T23:25:27.026Z,11.63
2023-02-11T23:28:29.830Z,11.68
2023-02-11T23:31:35.220Z,11.12
2023-02-11T23:34:37.515Z,11.88
2023-02-11T23:37:40.129Z,11.48
2023-02-11T23:40:42.712Z,12.18
2023-02-11T23:43:49.646Z,12.05
2023-02-11T23:46:51.844Z,11.68
2023-02-11T23:49:54.373Z,11.57
2023-02-11T23:52:56.566Z,12.68
2023-02-11T23:55:59.071Z,10.70
2023-02-11T23:59:01.267Z,11.15
